Time;durP1;ratioP1;P1;durP2;ratioP2;P2;SDS_P1;SDS_P2;PMS_P1;PMS_P2;Temp;Humidity;BMP_temperature;BMP_pressure;BME280_temperature;BME280_humidity;BME280_pressure;Samples;Min_cycle;Max_cycle;Signal;HPM_P1;HPM_P2
2023/06/30 00:02:14;;;;;;;2.92;2.60;;;16.30;99.90;;;;;;5050743;28;20035;-70
2023/06/30 00:04:40;;;;;;;2.55;2.35;;;16.20;99.90;;;;;;5046980;28;20043;-69
2023/06/30 00:07:06;;;;;;;3.03;2.70;;;16.20;99.90;;;;;;5035676;28;20076;-70
2023/06/30 00:09:32;;;;;;;4.15;2.35;;;16.20;99.90;;;;;;5042023;28;20034;-69
2023/06/30 00:11:57;;;;;;;2.15;1.98;;;16.30;99.90;;;;;;5050360;28;20044;-70
2023/06/30 00:14:23;;;;;;;2.10;1.90;;;16.30;99.90;;;;;;5044461;28;20049;-70
2023/06/30 00:16:49;;;;;;;1.98;1.77;;;16.30;99.90;;;;;;5044698;28;20041;-70
2023/06/30 00:19:16;;;;;;;5.57;1.83;;;16.20;99.90;;;;;;5047160;28;20113;-70
2023/06/30 00:21:42;;;;;;;1.77;1.67;;;16.20;99.90;;;;;;5047893;28;20044;-70
2023/06/30 00:24:13;;;;;;;2.80;2.10;;;16.10;99.90;;;;;;5045212;28;20090;-70
2023/06/30 00:26:40;;;;;;;2.05;1.83;;;16.10;99.90;;;;;;5044625;28;20622;-69
2023/06/30 00:29:06;;;;;;;3.05;2.13;;;16.00;99.90;;;;;;5045111;28;20079;-70
2023/06/30 00:31:32;;;;;;;2.50;2.30;;;16.00;99.90;;;;;;5040962;28;20033;-70
2023/06/30 00:33:57;;;;;;;3.10;2.85;;;16.00;99.90;;;;;;5044794;28;20045;-70
2023/06/30 00:36:23;;;;;;;3.65;2.50;;;16.00;99.90;;;;;;5045946;28;20050;-69
2023/06/30 00:38:54;;;;;;;2.47;2.28;;;16.10;99.90;;;;;;5043626;28;20029;-69
2023/06/30 00:41:23;;;;;;;2.20;2.03;;;16.10;99.90;;;;;;5048568;28;20056;-70
2023/06/30 00:43:48;;;;;;;2.47;2.28;;;16.10;99.90;;;;;;5034207;28;20036;-69
2023/06/30 00:46:17;;;;;;;3.65;2.40;;;16.00;99.90;;;;;;5049215;28;20898;-69
2023/06/30 00:48:44;;;;;;;2.92;2.40;;;16.00;99.90;;;;;;5050380;28;20040;-70
2023/06/30 00:51:11;;;;;;;3.15;2.40;;;16.00;99.90;;;;;;5050144;28;20041;-69
2023/06/30 00:53:37;;;;;;;1.92;1.83;;;16.00;99.90;;;;;;5049516;28;20052;-69
2023/06/30 00:56:03;;;;;;;3.70;1.85;;;15.90;99.90;;;;;;5053549;28;20463;-69
2023/06/30 00:58:29;;;;;;;2.67;2.15;;;15.90;99.90;;;;;;5047405;28;22779;-69
2023/06/30 01:01:01;;;;;;;3.10;2.25;;;15.80;99.90;;;;;;5051115;28;20052;-70
2023/06/30 01:03:33;;;;;;;2.38;2.00;;;15.80;99.90;;;;;;5049020;28;20032;-64
2023/06/30 01:06:01;;;;;;;;;;;15.70;99.90;;;;;;5047428;28;20936;-70
2023/06/30 01:08:55;;;;;;;2.72;1.70;;;15.70;99.90;;;;;;5048139;28;19912;-70
2023/06/30 01:11:21;;;;;;;4.22;2.28;;;15.70;99.90;;;;;;5050874;28;20047;-70
2023/06/30 01:13:48;;;;;;;3.15;2.50;;;15.60;99.90;;;;;;5051747;28;20067;-69
2023/06/30 01:16:16;;;;;;;3.45;2.42;;;15.60;99.90;;;;;;5047146;28;20068;-70
2023/06/30 01:18:44;;;;;;;2.92;2.05;;;15.60;99.90;;;;;;5048249;28;20032;-70
2023/06/30 01:21:15;;;;;;;2.10;1.90;;;15.60;99.90;;;;;;5046643;28;20079;-70
2023/06/30 01:24:08;;;;;;;2.22;2.08;;;15.60;99.90;;;;;;5044740;28;20044;-70
2023/06/30 01:26:34;;;;;;;2.05;1.88;;;15.50;99.90;;;;;;5046416;28;20170;-70
2023/06/30 01:29:06;;;;;;;2.03;1.85;;;15.40;99.90;;;;;;5048251;28;20029;-70
2023/06/30 01:31:32;;;;;;;2.33;2.20;;;15.40;99.90;;;;;;5053329;28;20053;-70
2023/06/30 01:34:02;;;;;;;2.50;2.05;;;15.40;99.90;;;;;;5051542;28;20126;-70
2023/06/30 01:36:28;;;;;;;3.38;2.05;;;15.30;99.90;;;;;;5051636;28;20123;-70
2023/06/30 01:38:53;;;;;;;2.40;2.20;;;15.40;99.90;;;;;;5052708;28;20032;-70
2023/06/30 01:41:21;;;;;;;3.15;2.22;;;15.40;99.90;;;;;;5040090;28;20050;-70
2023/06/30 01:43:49;;;;;;;2.65;2.40;;;15.50;99.90;;;;;;5052164;28;20059;-70
2023/06/30 01:46:15;;;;;;;3.40;2.67;;;15.50;99.90;;;;;;5051702;28;20037;-70
2023/06/30 01:48:43;;;;;;;2.85;2.53;;;15.50;99.90;;;;;;5054255;28;20220;-70
2023/06/30 01:51:11;;;;;;;2.47;2.25;;;15.50;99.90;;;;;;5053262;28;20043;-70
2023/06/30 01:53:36;;;;;;;3.75;1.92;;;15.40;99.90;;;;;;5055317;28;20041;-70
2023/06/30 01:56:02;;;;;;;2.30;2.10;;;15.40;99.90;;;;;;5055617;28;20433;-70
2023/06/30 01:58:28;;;;;;;2.20;2.00;;;15.40;99.90;;;;;;5055499;28;20471;-65
2023/06/30 02:00:54;;;;;;;2.20;2.00;;;15.40;99.90;;;;;;5051124;28;20049;-70
2023/06/30 02:03:19;;;;;;;2.10;1.90;;;15.30;99.90;;;;;;5033604;28;20041;-70
2023/06/30 02:05:45;;;;;;;2.97;2.25;;;15.30;99.90;;;;;;5046937;28;20801;-70
2023/06/30 02:08:11;;;;;;;3.08;1.77;;;15.30;99.90;;;;;;5056170;28;20472;-70
2023/06/30 02:10:37;;;;;;;2.30;1.90;;;15.30;99.90;;;;;;5055172;28;20059;-70
2023/06/30 02:13:02;;;;;;;2.40;2.17;;;15.30;99.90;;;;;;5050355;28;20115;-70
2023/06/30 02:15:28;;;;;;;1.80;1.70;;;15.30;99.90;;;;;;5049929;28;20413;-70
2023/06/30 02:17:55;;;;;;;2.10;1.95;;;15.20;99.90;;;;;;5052157;28;20170;-70
2023/06/30 02:20:20;;;;;;;3.05;1.95;;;15.20;99.90;;;;;;5048715;28;20583;-70
2023/06/30 02:22:47;;;;;;;3.13;1.98;;;15.20;99.90;;;;;;5053498;28;20032;-70
2023/06/30 02:25:12;;;;;;;1.80;1.70;;;15.10;99.90;;;;;;5046625;28;20461;-71
2023/06/30 02:27:38;;;;;;;5.75;3.10;;;15.10;99.90;;;;;;5048740;28;20052;-70
2023/06/30 02:30:06;;;;;;;4.22;1.98;;;15.10;99.90;;;;;;5049140;28;20044;-70
2023/06/30 02:32:41;;;;;;;4.38;1.80;;;15.00;99.90;;;;;;5049319;28;20102;-70
2023/06/30 02:35:08;;;;;;;2.40;2.20;;;15.00;99.90;;;;;;5047426;28;20059;-65
2023/06/30 02:37:34;;;;;;;1.73;1.52;;;15.00;99.90;;;;;;5048568;28;20203;-70
2023/06/30 02:40:00;;;;;;;2.50;2.30;;;14.90;99.90;;;;;;5042557;28;20029;-70
2023/06/30 02:42:25;;;;;;;4.55;2.38;;;14.90;99.90;;;;;;5052710;28;20095;-70
2023/06/30 02:44:51;;;;;;;2.50;1.90;;;14.80;99.90;;;;;;5051284;28;20462;-70
2023/06/30 02:47:17;;;;;;;2.58;2.05;;;14.80;99.90;;;;;;5051124;28;20033;-70
2023/06/30 02:49:43;;;;;;;3.33;2.10;;;14.80;99.90;;;;;;5033651;28;20036;-70
2023/06/30 02:52:09;;;;;;;3.53;1.80;;;14.90;99.90;;;;;;5054102;28;20041;-70
2023/06/30 02:54:34;;;;;;;2.10;2.00;;;14.90;99.90;;;;;;5033813;28;20081;-65
2023/06/30 02:57:00;;;;;;;2.30;2.10;;;14.80;99.90;;;;;;5054023;28;20040;-65
2023/06/30 02:59:26;;;;;;;2.60;2.40;;;14.90;99.90;;;;;;5055257;28;20571;-65
2023/06/30 03:01:51;;;;;;;3.15;1.70;;;14.90;99.90;;;;;;5052879;28;20056;-65
2023/06/30 03:04:17;;;;;;;2.63;2.22;;;14.80;99.90;;;;;;5045372;28;20448;-66
2023/06/30 03:06:43;;;;;;;3.70;2.25;;;14.90;99.90;;;;;;5052236;28;20523;-65
2023/06/30 03:09:08;;;;;;;5.18;1.55;;;14.80;99.90;;;;;;5051442;28;20580;-64
2023/06/30 03:11:34;;;;;;;2.63;1.65;;;14.90;99.90;;;;;;5052459;28;20512;-65
2023/06/30 03:13:59;;;;;;;3.03;1.70;;;14.80;99.90;;;;;;5056033;28;20198;-65
2023/06/30 03:16:25;;;;;;;1.88;1.77;;;14.80;99.90;;;;;;5053382;28;20482;-65
2023/06/30 03:18:51;;;;;;;1.75;1.50;;;14.80;99.90;;;;;;5054540;28;20044;-65
2023/06/30 03:21:16;;;;;;;3.92;1.98;;;14.80;99.90;;;;;;5049473;28;20562;-65
2023/06/30 03:23:42;;;;;;;1.75;1.65;;;14.80;99.90;;;;;;5056574;28;20024;-65
2023/06/30 03:26:08;;;;;;;3.25;1.92;;;14.90;99.90;;;;;;5050299;28;20175;-65
2023/06/30 03:28:35;;;;;;;4.85;1.90;;;14.90;99.90;;;;;;5050850;28;20053;-64
2023/06/30 03:31:01;;;;;;;2.22;1.45;;;14.80;99.90;;;;;;5050460;28;20028;-65
2023/06/30 03:33:26;;;;;;;2.40;1.80;;;14.90;99.90;;;;;;5049963;28;20044;-65
2023/06/30 03:35:52;;;;;;;1.98;1.88;;;14.90;99.90;;;;;;5048305;28;20580;-65
2023/06/30 03:38:18;;;;;;;2.13;1.98;;;14.80;99.90;;;;;;5047702;28;20056;-66
2023/06/30 03:40:43;;;;;;;2.13;1.92;;;14.80;99.90;;;;;;5050353;28;20516;-65
2023/06/30 03:43:10;;;;;;;4.40;2.00;;;14.90;99.90;;;;;;5054382;28;20500;-65
2023/06/30 03:45:37;;;;;;;5.63;2.10;;;14.90;99.90;;;;;;5050489;28;20037;-65
2023/06/30 03:48:03;;;;;;;2.42;2.15;;;15.00;99.90;;;;;;5050282;28;20134;-65
2023/06/30 03:50:29;;;;;;;2.03;1.92;;;15.10;99.90;;;;;;5052638;28;20046;-65
2023/06/30 03:52:55;;;;;;;2.03;1.85;;;15.10;99.90;;;;;;5051477;28;20029;-65
2023/06/30 03:55:20;;;;;;;1.90;1.77;;;15.20;99.90;;;;;;5051563;28;20054;-65
2023/06/30 03:57:46;;;;;;;2.53;1.90;;;15.30;99.90;;;;;;5054331;28;20033;-65
2023/06/30 04:00:12;;;;;;;1.70;1.60;;;15.30;99.90;;;;;;5055428;28;20507;-65
2023/06/30 04:02:39;;;;;;;2.05;1.92;;;15.40;99.90;;;;;;5050216;28;20174;-65
2023/06/30 04:05:05;;;;;;;3.58;1.90;;;15.50;99.90;;;;;;5049195;28;20112;-65
2023/06/30 04:07:31;;;;;;;2.40;1.80;;;15.50;99.90;;;;;;5051254;28;20044;-65
2023/06/30 04:09:56;;;;;;;2.10;1.90;;;15.50;99.90;;;;;;5053526;28;20511;-65
2023/06/30 04:12:22;;;;;;;4.10;1.73;;;15.60;99.90;;;;;;5031526;28;20036;-65
2023/06/30 04:14:48;;;;;;;3.33;1.85;;;15.70;99.90;;;;;;5054831;28;20040;-66
2023/06/30 04:17:14;;;;;;;2.40;2.00;;;15.80;99.90;;;;;;5048011;28;20096;-65
2023/06/30 04:19:39;;;;;;;2.40;2.10;;;15.90;99.90;;;;;;5048621;28;20608;-65
2023/06/30 04:22:05;;;;;;;2.47;2.28;;;15.90;99.90;;;;;;5051615;28;20041;-65
2023/06/30 04:24:31;;;;;;;2.67;2.10;;;15.90;99.90;;;;;;5051702;28;20135;-65
2023/06/30 04:26:56;;;;;;;2.35;2.05;;;16.10;99.90;;;;;;5049987;28;20055;-71
2023/06/30 04:29:22;;;;;;;4.70;2.05;;;16.10;99.90;;;;;;5050887;28;20135;-70
2023/06/30 04:31:48;;;;;;;2.13;1.85;;;16.30;99.90;;;;;;5037930;28;20033;-70
2023/06/30 04:34:14;;;;;;;1.95;1.85;;;16.40;99.90;;;;;;5048204;28;20033;-70
2023/06/30 04:36:39;;;;;;;2.63;2.00;;;16.50;99.90;;;;;;5053168;28;20042;-71
2023/06/30 04:39:05;;;;;;;4.10;2.28;;;16.60;99.90;;;;;;5050233;28;20362;-70
2023/06/30 04:41:31;;;;;;;3.83;2.63;;;16.70;99.90;;;;;;5050335;28;20021;-71
2023/06/30 04:43:56;;;;;;;2.90;2.70;;;16.80;99.90;;;;;;5052931;28;20104;-70
2023/06/30 04:46:24;;;;;;;3.47;2.67;;;16.90;99.90;;;;;;5046281;28;20040;-65
2023/06/30 04:48:50;;;;;;;3.85;2.58;;;17.00;99.90;;;;;;5046119;28;20025;-65
2023/06/30 04:51:16;;;;;;;2.92;2.72;;;17.20;99.90;;;;;;5050856;28;20113;-64
2023/06/30 04:53:42;;;;;;;3.45;2.72;;;17.20;99.90;;;;;;5055602;28;20648;-65
2023/06/30 04:56:07;;;;;;;3.50;3.10;;;17.40;99.90;;;;;;5048515;28;20678;-65
2023/06/30 04:58:33;;;;;;;4.38;3.00;;;17.50;99.90;;;;;;5051188;28;20107;-65
2023/06/30 05:00:58;;;;;;;3.88;3.20;;;17.70;99.90;;;;;;5051093;28;20036;-64
2023/06/30 05:03:24;;;;;;;3.08;2.88;;;17.70;99.90;;;;;;5044251;28;20044;-65
2023/06/30 05:05:50;;;;;;;3.08;2.80;;;17.80;99.90;;;;;;5052073;28;20044;-70
2023/06/30 05:08:15;;;;;;;3.92;2.90;;;17.80;99.90;;;;;;5051099;28;20048;-70
2023/06/30 05:10:41;;;;;;;3.40;3.08;;;17.90;99.90;;;;;;5051751;28;20038;-70
2023/06/30 05:13:06;;;;;;;2.88;2.50;;;18.00;99.90;;;;;;5050210;28;20075;-70
2023/06/30 05:15:32;;;;;;;3.28;2.90;;;18.10;99.90;;;;;;5051981;28;20516;-70
2023/06/30 05:17:58;;;;;;;8.75;3.50;;;18.20;99.90;;;;;;5052076;28;20532;-70
2023/06/30 05:20:23;;;;;;;4.57;2.85;;;18.30;99.90;;;;;;5051015;28;20047;-69
2023/06/30 05:22:49;;;;;;;3.22;2.92;;;18.30;99.90;;;;;;5048077;28;20077;-70
2023/06/30 05:25:15;;;;;;;4.10;2.80;;;18.50;99.90;;;;;;5051721;28;20184;-70
2023/06/30 05:27:40;;;;;;;2.80;2.25;;;18.60;99.90;;;;;;5048693;28;20084;-70
2023/06/30 05:30:06;;;;;;;2.63;2.15;;;18.60;99.90;;;;;;5053142;28;20116;-69
2023/06/30 05:32:32;;;;;;;2.15;1.95;;;18.70;99.90;;;;;;5051736;28;20552;-70
2023/06/30 05:34:58;;;;;;;2.58;2.10;;;18.80;99.90;;;;;;5045658;28;20045;-70
2023/06/30 05:37:23;;;;;;;2.78;2.58;;;18.90;99.90;;;;;;5050766;28;20098;-70
2023/06/30 05:39:49;;;;;;;2.53;2.30;;;19.00;99.90;;;;;;5049934;28;20041;-65
2023/06/30 05:42:14;;;;;;;2.60;1.80;;;19.10;99.90;;;;;;5044884;28;20521;-65
2023/06/30 05:44:40;;;;;;;3.25;2.30;;;19.10;99.90;;;;;;5053363;28;20036;-65
2023/06/30 05:47:06;;;;;;;2.70;2.30;;;19.30;99.90;;;;;;5038587;28;20048;-64
2023/06/30 05:49:32;;;;;;;2.28;2.03;;;19.30;99.90;;;;;;5054145;28;20032;-64
2023/06/30 05:51:57;;;;;;;2.92;2.10;;;19.40;99.90;;;;;;5050080;28;20060;-65
2023/06/30 05:54:23;;;;;;;2.13;1.98;;;19.60;99.90;;;;;;5049968;28;20135;-64
2023/06/30 05:56:49;;;;;;;4.43;2.00;;;19.70;99.90;;;;;;5054192;28;20048;-64
2023/06/30 05:59:14;;;;;;;2.30;2.10;;;19.90;99.90;;;;;;5050016;28;20049;-65
2023/06/30 06:01:40;;;;;;;3.72;2.00;;;20.00;99.90;;;;;;5045302;28;20032;-65
2023/06/30 06:04:10;;;;;;;2.33;2.10;;;20.10;99.90;;;;;;5056541;28;20044;-64
2023/06/30 06:06:39;;;;;;;5.05;2.63;;;20.20;99.90;;;;;;5054337;28;20106;-64
2023/06/30 06:09:05;;;;;;;2.53;2.17;;;20.20;99.90;;;;;;5056786;28;20037;-64
2023/06/30 06:11:31;;;;;;;2.55;1.92;;;20.40;99.90;;;;;;5050956;28;20558;-64
2023/06/30 06:13:57;;;;;;;2.47;2.17;;;20.40;99.90;;;;;;5053733;28;20064;-64
2023/06/30 06:16:22;;;;;;;2.55;2.17;;;20.60;99.90;;;;;;5051743;28;20083;-64
2023/06/30 06:18:49;;;;;;;3.10;2.13;;;20.60;99.90;;;;;;5048782;28;20493;-64
2023/06/30 06:21:16;;;;;;;2.38;1.98;;;20.80;99.90;;;;;;5058622;28;20098;-64
2023/06/30 06:23:42;;;;;;;1.80;1.65;;;20.90;99.90;;;;;;5057790;28;20028;-64
2023/06/30 06:26:08;;;;;;;2.63;2.10;;;21.00;99.90;;;;;;5055155;28;20043;-64
2023/06/30 06:28:33;;;;;;;2.88;2.13;;;21.10;99.90;;;;;;5055888;28;20047;-64
2023/06/30 06:30:59;;;;;;;7.85;1.70;;;21.20;99.90;;;;;;5047195;28;20040;-65
2023/06/30 06:33:25;;;;;;;7.78;1.98;;;21.30;99.90;;;;;;5054928;28;20483;-64
2023/06/30 06:35:51;;;;;;;5.15;1.90;;;21.40;99.90;;;;;;5056352;28;20225;-70
2023/06/30 06:38:18;;;;;;;1.92;1.50;;;21.50;99.90;;;;;;5056133;28;20039;-70
2023/06/30 06:40:47;;;;;;;1.80;1.50;;;21.60;99.90;;;;;;5056278;28;20036;-70
2023/06/30 06:43:13;;;;;;;2.25;2.05;;;21.70;99.90;;;;;;5055057;28;20192;-70
2023/06/30 06:45:39;;;;;;;1.83;1.30;;;21.90;99.90;;;;;;5054706;28;20040;-70
2023/06/30 06:48:24;;;;;;;2.15;1.48;;;22.00;99.90;;;;;;5052043;28;20079;-71
2023/06/30 06:50:58;;;;;;;5.00;1.58;;;22.10;99.90;;;;;;5057599;28;20134;-70
2023/06/30 06:53:30;;;;;;;2.33;1.60;;;22.30;99.90;;;;;;5046744;28;20047;-71
2023/06/30 06:55:57;;;;;;;2.22;1.33;;;22.40;99.90;;;;;;5052686;28;20044;-71
2023/06/30 06:58:26;;;;;;;5.32;1.63;;;22.40;99.90;;;;;;5047947;28;20043;-71
2023/06/30 07:00:52;;;;;;;2.10;1.50;;;22.40;99.90;;;;;;5034455;28;20049;-71
2023/06/30 07:03:19;;;;;;;2.28;1.58;;;22.50;99.90;;;;;;5053235;28;20121;-71
2023/06/30 07:05:45;;;;;;;2.35;1.50;;;22.50;99.90;;;;;;5044804;28;20033;-70
2023/06/30 07:08:11;;;;;;;5.32;2.03;;;22.60;99.90;;;;;;5052824;28;20498;-70
2023/06/30 07:10:37;;;;;;;2.58;1.38;;;22.70;99.90;;;;;;5052003;28;20068;-71
2023/06/30 07:13:03;;;;;;;1.20;1.10;;;22.90;99.90;;;;;;5036354;28;20069;-70
2023/06/30 07:15:30;;;;;;;2.25;1.30;;;22.90;99.90;;;;;;5045124;28;20146;-70
2023/06/30 07:17:58;;;;;;;1.80;1.30;;;23.00;99.90;;;;;;5052859;28;20114;-70
2023/06/30 07:20:25;;;;;;;3.20;1.02;;;23.00;99.90;;;;;;5048343;28;20048;-70
2023/06/30 07:22:52;;;;;;;3.63;1.20;;;23.10;99.90;;;;;;5053082;28;20028;-68
2023/06/30 07:25:17;;;;;;;2.78;1.15;;;23.10;99.90;;;;;;5050554;28;20040;-69
2023/06/30 07:27:52;;;;;;;1.42;1.10;;;23.20;99.90;;;;;;5045188;28;20114;-70
2023/06/30 07:30:20;;;;;;;1.67;1.20;;;23.20;99.90;;;;;;5043522;28;20048;-70
2023/06/30 07:32:45;;;;;;;2.25;1.30;;;23.30;99.90;;;;;;5026465;28;20588;-63
2023/06/30 07:35:11;;;;;;;3.88;1.20;;;23.40;99.90;;;;;;5042897;28;20491;-62
2023/06/30 07:37:38;;;;;;;2.38;1.10;;;23.40;99.90;;;;;;5037101;28;20112;-61
2023/06/30 07:40:04;;;;;;;4.25;1.52;;;23.50;99.90;;;;;;5047508;28;20084;-64
2023/06/30 07:42:30;;;;;;;3.38;1.63;;;23.60;99.90;;;;;;5031099;28;20128;-61
2023/06/30 07:44:55;;;;;;;1.20;1.02;;;23.70;99.90;;;;;;5049711;28;20037;-67
2023/06/30 07:47:21;;;;;;;3.72;1.95;;;23.80;99.90;;;;;;5049284;28;20103;-65
2023/06/30 07:49:46;;;;;;;1.48;1.38;;;23.80;99.90;;;;;;5035468;28;20097;-66
2023/06/30 07:52:12;;;;;;;2.30;1.08;;;23.80;99.90;;;;;;5045088;28;20044;-67
2023/06/30 07:54:38;;;;;;;4.10;1.27;;;23.80;99.90;;;;;;5047024;28;20552;-67
2023/06/30 07:57:04;;;;;;;6.47;1.55;;;23.90;99.90;;;;;;5028711;28;20154;-63
2023/06/30 07:59:30;;;;;;;49.25;3.58;;;24.00;99.90;;;;;;5043974;28;20056;-63
2023/06/30 08:01:55;;;;;;;3.40;1.70;;;24.10;99.90;;;;;;5042821;28;20093;-63
2023/06/30 08:04:21;;;;;;;2.13;1.38;;;24.10;99.90;;;;;;5053100;28;20135;-64
2023/06/30 08:06:47;;;;;;;2.05;1.35;;;24.10;99.90;;;;;;5041132;28;20518;-63
2023/06/30 08:09:13;;;;;;;1.30;1.20;;;24.10;99.90;;;;;;5036128;28;20045;-69
2023/06/30 08:11:39;;;;;;;2.42;1.77;;;24.20;99.90;;;;;;5043246;28;20094;-62
2023/06/30 08:14:06;;;;;;;1.70;1.02;;;24.20;99.90;;;;;;5035054;28;20048;-64
2023/06/30 08:16:32;;;;;;;1.20;1.10;;;24.30;99.90;;;;;;5044238;28;20492;-62
2023/06/30 08:18:58;;;;;;;3.88;1.23;;;24.40;99.90;;;;;;5047463;28;20131;-63
2023/06/30 08:21:24;;;;;;;1.00;0.95;;;24.40;99.90;;;;;;5045634;28;20528;-62
2023/06/30 08:23:50;;;;;;;2.03;1.50;;;24.30;99.90;;;;;;5039384;28;20043;-63
2023/06/30 08:26:16;;;;;;;2.80;1.48;;;24.30;99.90;;;;;;5048360;28;20041;-63
2023/06/30 08:28:42;;;;;;;1.17;1.15;;;24.30;99.90;;;;;;5038692;28;20077;-62
2023/06/30 08:31:08;;;;;;;4.97;1.88;;;24.30;99.90;;;;;;5042188;28;20717;-62
2023/06/30 08:33:33;;;;;;;2.50;1.50;;;24.40;99.90;;;;;;5048189;28;20101;-62
2023/06/30 08:36:01;;;;;;;3.78;1.33;;;24.40;99.90;;;;;;5046396;28;20056;-63
2023/06/30 08:38:26;;;;;;;3.13;1.10;;;24.50;99.90;;;;;;5039990;28;20037;-62
2023/06/30 08:40:52;;;;;;;9.43;2.00;;;24.60;99.90;;;;;;5047196;28;20056;-62
2023/06/30 08:43:22;;;;;;;1.55;1.05;;;24.70;99.90;;;;;;5025477;28;20027;-63
2023/06/30 08:45:49;;;;;;;1.83;0.90;;;24.70;99.90;;;;;;5040277;28;20174;-63
2023/06/30 08:48:18;;;;;;;2.10;1.17;;;24.80;99.90;;;;;;5028795;28;20033;-63
2023/06/30 08:50:45;;;;;;;2.22;1.20;;;24.80;99.90;;;;;;5044072;28;20120;-63
2023/06/30 08:53:11;;;;;;;2.35;1.40;;;24.80;99.90;;;;;;5041540;28;20040;-62
2023/06/30 08:55:37;;;;;;;2.47;1.13;;;24.80;99.90;;;;;;5045590;28;20052;-62
2023/06/30 08:58:04;;;;;;;3.00;1.50;;;24.90;99.90;;;;;;5048717;28;20056;-62
2023/06/30 09:00:29;;;;;;;4.18;1.38;;;25.00;99.90;;;;;;5051528;28;20037;-76
2023/06/30 09:02:56;;;;;;;2.60;1.50;;;25.00;99.90;;;;;;5047627;28;20056;-76
2023/06/30 09:05:25;;;;;;;1.85;1.10;;;25.00;99.90;;;;;;5046315;28;20036;-74
2023/06/30 09:07:55;;;;;;;6.20;1.02;;;24.90;99.90;;;;;;5035186;28;20524;-77
2023/06/30 09:10:27;;;;;;;1.42;1.10;;;24.90;99.90;;;;;;5050156;28;20053;-74
2023/06/30 09:12:57;;;;;;;5.55;1.48;;;25.00;99.90;;;;;;5049369;28;20508;-75
2023/06/30 09:15:24;;;;;;;1.35;0.93;;;25.10;99.90;;;;;;5047564;28;20094;-74
2023/06/30 09:17:54;;;;;;;1.20;1.10;;;25.20;99.90;;;;;;5046750;28;20097;-73
2023/06/30 09:20:23;;;;;;;1.15;0.93;;;25.20;99.90;;;;;;5049241;28;20036;-71
2023/06/30 09:22:50;;;;;;;2.10;1.35;;;25.30;99.90;;;;;;5045419;28;20032;-62
2023/06/30 09:25:24;;;;;;;1.50;1.10;;;25.30;99.90;;;;;;5045816;28;20044;-63
2023/06/30 09:27:50;;;;;;;1.48;0.90;;;25.30;99.90;;;;;;5042911;28;20118;-63
2023/06/30 09:30:16;;;;;;;2.30;1.10;;;25.30;99.90;;;;;;5030355;28;22660;-63
2023/06/30 09:32:42;;;;;;;1.40;1.13;;;25.30;99.90;;;;;;5044044;28;20124;-63
2023/06/30 09:35:08;;;;;;;0.88;0.88;;;25.30;99.60;;;;;;5046126;28;20115;-63
2023/06/30 09:37:41;;;;;;;2.03;1.00;;;25.30;99.30;;;;;;5051505;28;20381;-64
2023/06/30 09:40:23;;;;;;;2.10;1.27;;;25.30;98.90;;;;;;5039555;28;20040;-63
2023/06/30 09:42:53;;;;;;;2.55;1.00;;;25.30;99.20;;;;;;5047810;28;20170;-64
2023/06/30 09:45:18;;;;;;;2.40;1.10;;;25.30;98.80;;;;;;5046072;28;20490;-63
2023/06/30 09:47:53;;;;;;;2.65;1.40;;;25.30;99.80;;;;;;5044913;28;20156;-63
2023/06/30 09:50:25;;;;;;;1.23;1.13;;;25.30;99.90;;;;;;5044040;28;20047;-63
2023/06/30 09:52:51;;;;;;;3.92;1.45;;;25.50;99.90;;;;;;5053259;28;20062;-63
2023/06/30 09:55:17;;;;;;;2.88;1.35;;;25.60;99.90;;;;;;5043533;28;20075;-63
2023/06/30 09:57:46;;;;;;;2.15;1.30;;;25.60;99.90;;;;;;5046558;28;20485;-62
2023/06/30 10:00:19;;;;;;;1.48;1.10;;;25.70;99.90;;;;;;5045469;28;20071;-62
2023/06/30 10:02:45;;;;;;;4.13;1.30;;;25.70;99.60;;;;;;5048737;28;20047;-62
2023/06/30 10:05:11;;;;;;;3.65;1.13;;;25.70;99.70;;;;;;5051090;28;20045;-63
2023/06/30 10:07:40;;;;;;;2.55;1.42;;;25.70;99.90;;;;;;5033274;28;20814;-62
2023/06/30 10:10:09;;;;;;;2.13;1.30;;;25.80;99.90;;;;;;5048378;28;20782;-62
2023/06/30 10:12:37;;;;;;;4.82;1.23;;;25.90;99.80;;;;;;5054199;28;20111;-62
2023/06/30 10:15:05;;;;;;;1.83;1.35;;;25.90;99.80;;;;;;5046528;28;20044;-62
2023/06/30 10:17:31;;;;;;;2.03;1.13;;;25.90;99.70;;;;;;5053254;28;20043;-62
2023/06/30 10:19:59;;;;;;;1.33;1.23;;;25.80;99.80;;;;;;5043870;28;20040;-63
2023/06/30 10:22:25;;;;;;;1.45;1.33;;;26.00;99.90;;;;;;5042562;28;20493;-62
2023/06/30 10:24:51;;;;;;;2.45;1.15;;;26.00;99.90;;;;;;5043635;28;20148;-63
2023/06/30 10:27:19;;;;;;;2.60;1.10;;;26.10;98.90;;;;;;5046499;28;20040;-63
2023/06/30 10:29:48;;;;;;;5.15;1.42;;;26.00;98.20;;;;;;5048876;28;20429;-63
2023/06/30 10:32:14;;;;;;;2.63;1.27;;;26.10;99.90;;;;;;5038753;28;20130;-62
2023/06/30 10:34:41;;;;;;;2.83;1.30;;;26.10;98.90;;;;;;5040890;28;20045;-62
2023/06/30 10:37:07;;;;;;;12.48;3.25;;;26.10;98.80;;;;;;5049083;28;20123;-62
2023/06/30 10:39:33;;;;;;;3.03;2.05;;;26.00;99.90;;;;;;5038589;28;20063;-70
2023/06/30 10:41:58;;;;;;;2.53;1.60;;;26.00;99.40;;;;;;5040477;28;20044;-70
2023/06/30 10:44:48;;;;;;;9.45;2.70;;;26.00;99.40;;;;;;5043401;28;20707;-70
2023/06/30 10:47:20;;;;;;;6.63;1.50;;;25.90;99.90;;;;;;5039281;28;20068;-70
2023/06/30 10:49:45;;;;;;;1.30;1.20;;;26.00;99.40;;;;;;5037483;28;20033;-70
2023/06/30 10:52:23;;;;;;;3.00;1.33;;;26.10;99.00;;;;;;5042935;28;20824;-70
2023/06/30 10:54:50;;;;;;;7.43;1.60;;;26.10;99.40;;;;;;5047234;28;20222;-64
2023/06/30 10:57:26;;;;;;;6.85;1.90;;;26.10;99.50;;;;;;5049324;28;20090;-64
2023/06/30 11:00:05;;;;;;;6.68;1.80;;;26.20;99.60;;;;;;5050548;28;20035;-64
2023/06/30 11:02:32;;;;;;;11.18;2.03;;;26.20;99.70;;;;;;5045231;28;20041;-64
2023/06/30 11:05:33;;;;;;;9.52;1.70;;;26.30;98.70;;;;;;5052766;28;20051;-65
2023/06/30 11:08:01;;;;;;;2.80;1.27;;;26.30;96.60;;;;;;5032265;28;20041;-65
2023/06/30 11:10:33;;;;;;;2.30;1.10;;;26.20;98.80;;;;;;5033064;28;20059;-65
2023/06/30 11:13:00;;;;;;;1.85;1.10;;;26.30;98.10;;;;;;5034902;28;20041;-65
2023/06/30 11:15:36;;;;;;;3.13;1.20;;;26.30;97.30;;;;;;5030877;28;20958;-65
2023/06/30 11:18:09;;;;;;;3.95;1.40;;;26.30;98.30;;;;;;5031526;28;20049;-65
2023/06/30 11:20:35;;;;;;;1.98;1.10;;;26.40;98.90;;;;;;5035580;28;20273;-65
2023/06/30 11:23:03;;;;;;;2.92;1.10;;;26.50;98.50;;;;;;5031178;28;20551;-65
2023/06/30 11:25:30;;;;;;;3.55;1.15;;;26.50;98.20;;;;;;5029174;28;20560;-63
2023/06/30 11:27:57;;;;;;;2.80;1.73;;;26.60;99.00;;;;;;5028567;28;20409;-67
2023/06/30 11:30:24;;;;;;;2.20;1.50;;;26.60;98.30;;;;;;5030360;28;20129;-62
2023/06/30 11:32:58;;;;;;;2.38;1.00;;;26.60;97.80;;;;;;5029035;28;20043;-63
2023/06/30 11:35:25;;;;;;;2.88;1.55;;;26.60;96.80;;;;;;5031640;28;20053;-63
2023/06/30 11:37:52;;;;;;;1.63;1.15;;;26.50;96.70;;;;;;5037832;28;20037;-63
2023/06/30 11:40:18;;;;;;;1.77;0.88;;;26.50;96.30;;;;;;5029873;28;20140;-63
2023/06/30 11:42:44;;;;;;;3.17;0.93;;;26.60;95.90;;;;;;5027341;28;20036;-63
2023/06/30 11:45:13;;;;;;;6.18;1.38;;;26.70;97.20;;;;;;5041408;28;20041;-62
2023/06/30 11:47:45;;;;;;;8.27;1.30;;;26.80;96.30;;;;;;5023889;28;20493;-63
2023/06/30 11:50:10;;;;;;;;;;;26.80;94.50;;;;;;5036903;28;20048;-67
2023/06/30 11:52:38;;;;;;;1.23;0.90;;;26.70;94.00;;;;;;5030398;28;19923;-67
2023/06/30 11:55:07;;;;;;;2.40;0.90;;;26.60;94.90;;;;;;5029111;28;20052;-67
2023/06/30 11:57:34;;;;;;;5.22;1.17;;;26.60;94.70;;;;;;5013893;28;20075;-67
2023/06/30 12:00:26;;;;;;;1.00;0.85;;;26.60;94.80;;;;;;5026601;28;20069;-67
2023/06/30 12:02:52;;;;;;;1.05;0.90;;;26.70;94.30;;;;;;5029877;28;20608;-67
2023/06/30 12:05:21;;;;;;;2.95;1.10;;;26.70;92.70;;;;;;5026900;28;20033;-68
2023/06/30 12:07:50;;;;;;;2.55;1.02;;;26.80;92.10;;;;;;5036848;28;20519;-68
2023/06/30 12:10:15;;;;;;;3.88;1.10;;;26.80;93.20;;;;;;5033265;28;20519;-68
2023/06/30 12:12:41;;;;;;;1.10;1.00;;;26.90;93.20;;;;;;5038921;28;20029;-68
2023/06/30 12:15:09;;;;;;;2.13;1.15;;;26.90;91.90;;;;;;5039620;28;20063;-68
2023/06/30 12:17:39;;;;;;;1.70;1.02;;;26.90;92.50;;;;;;5042266;28;20037;-68
2023/06/30 12:20:06;;;;;;;1.50;1.40;;;26.90;92.70;;;;;;5043824;28;20047;-68
2023/06/30 12:22:35;;;;;;;1.20;0.90;;;27.00;93.80;;;;;;5039785;28;21654;-70
2023/06/30 12:25:02;;;;;;;1.48;0.80;;;27.10;92.30;;;;;;5044273;28;20044;-68
2023/06/30 12:27:27;;;;;;;2.35;1.05;;;27.00;90.70;;;;;;5039160;28;20090;-68
2023/06/30 12:29:54;;;;;;;1.17;1.00;;;26.90;91.40;;;;;;5044000;28;20029;-68
2023/06/30 12:32:20;;;;;;;1.02;0.90;;;26.80;89.60;;;;;;5048679;28;20044;-68
2023/06/30 12:34:46;;;;;;;0.98;0.77;;;26.60;90.00;;;;;;5052933;28;20127;-68
2023/06/30 12:37:12;;;;;;;0.60;0.60;;;26.60;90.30;;;;;;5037376;28;20075;-68
2023/06/30 12:39:38;;;;;;;0.82;0.82;;;26.50;90.30;;;;;;5044409;28;20124;-69
2023/06/30 12:42:04;;;;;;;0.85;0.85;;;26.50;90.20;;;;;;5050833;28;20253;-69
2023/06/30 12:44:30;;;;;;;2.00;1.00;;;26.50;90.80;;;;;;5043915;28;20425;-69
2023/06/30 12:47:05;;;;;;;1.40;0.90;;;26.60;92.00;;;;;;5043070;28;20809;-69
2023/06/30 12:49:31;;;;;;;1.17;1.08;;;26.80;91.50;;;;;;5047322;28;20062;-69